sensor_id;sensor_type;location;lat;lon;timestamp;pressure;altitude;pressure_sealevel;temperature;humidity
43161;BME280;40968;52.342;5.528;2022-11-04T00:02:02;99754.22;;;9.23;83.80
43161;BME280;40968;52.342;5.528;2022-11-04T00:04:29;100006.44;;;10.72;83.80
43161;BME280;40968;52.342;5.528;2022-11-04T00:06:57;99945.59;;;10.32;84.12
43161;BME280;40968;52.342;5.528;2022-11-04T00:09:25;99754.31;;;9.12;83.70
43161;BME280;40968;52.342;5.528;2022-11-04T00:11:52;99933.72;;;10.24;84.01
43161;BME280;40968;52.342;5.528;2022-11-04T00:14:36;99984.47;;;10.47;83.95
43161;BME280;40968;52.342;5.528;2022-11-04T00:17:03;99907.25;;;10.00;84.04
43161;BME280;40968;52.342;5.528;2022-11-04T00:19:47;99759.91;;;9.09;84.08
43161;BME280;40968;52.342;5.528;2022-11-04T00:22:32;99932.25;;;10.10;84.31
43161;BME280;40968;52.342;5.528;2022-11-04T00:25:16;99794.06;;;9.26;84.27
43161;BME280;40968;52.342;5.528;2022-11-04T00:28:02;100026.69;;;10.65;84.49
43161;BME280;40968;52.342;5.528;2022-11-04T00:30:47;99869.19;;;9.66;84.45
43161;BME280;40968;52.342;5.528;2022-11-04T00:33:13;100016.75;;;10.45;84.50
43161;BME280;40968;52.342;5.528;2022-11-04T00:35:53;100043.66;;;10.44;84.57
43161;BME280;40968;52.342;5.528;2022-11-04T00:38:22;99974.88;;;10.23;84.58
43161;BME280;40968;52.342;5.528;2022-11-04T00:40:48;100002.56;;;10.34;84.76
43161;BME280;40968;52.342;5.528;2022-11-04T00:43:15;99970.25;;;10.04;84.48
43161;BME280;40968;52.342;5.528;2022-11-04T00:45:42;99811.41;;;9.11;84.56
43161;BME280;40968;52.342;5.528;2022-11-04T00:48:09;99859.28;;;9.35;84.78
43161;BME280;40968;52.342;5.528;2022-11-04T00:50:35;99919.75;;;9.69;84.95
43161;BME280;40968;52.342;5.528;2022-11-04T00:53:02;99932.53;;;9.65;84.87
43161;BME280;40968;52.342;5.528;2022-11-04T00:55:31;99720.88;;;8.43;84.85
43161;BME280;40968;52.342;5.528;2022-11-04T00:57:57;100090.84;;;10.56;85.14
43161;BME280;40968;52.342;5.528;2022-11-04T01:00:24;100050.53;;;10.37;84.98
43161;BME280;40968;52.342;5.528;2022-11-04T01:02:51;100000.44;;;10.06;85.27
43161;BME280;40968;52.342;5.528;2022-11-04T01:05:18;99857.31;;;9.16;84.91
43161;BME280;40968;52.342;5.528;2022-11-04T01:07:44;99844.88;;;9.05;84.89
43161;BME280;40968;52.342;5.528;2022-11-04T01:10:12;99992.34;;;9.96;85.12
43161;BME280;40968;52.342;5.528;2022-11-04T01:12:40;100092.34;;;10.49;84.96
43161;BME280;40968;52.342;5.528;2022-11-04T01:15:07;100098.69;;;10.48;84.70
43161;BME280;40968;52.342;5.528;2022-11-04T01:17:34;100061.41;;;10.24;84.64
43161;BME280;40968;52.342;5.528;2022-11-04T01:20:00;100065.06;;;10.23;84.36
43161;BME280;40968;52.342;5.528;2022-11-04T01:22:28;99906.50;;;9.25;84.58
43161;BME280;40968;52.342;5.528;2022-11-04T01:24:54;99936.81;;;9.35;84.60
43161;BME280;40968;52.342;5.528;2022-11-04T01:27:21;100042.81;;;9.80;84.58
43161;BME280;40968;52.342;5.528;2022-11-04T01:29:49;99769.22;;;8.17;84.57
43161;BME280;40968;52.342;5.528;2022-11-04T01:32:16;100018.91;;;9.67;85.02
43161;BME280;40968;52.342;5.528;2022-11-04T01:34:43;100113.22;;;10.13;85.04
43161;BME280;40968;52.342;5.528;2022-11-04T01:37:09;100048.78;;;9.72;85.32
43161;BME280;40968;52.342;5.528;2022-11-04T01:39:37;100060.38;;;9.61;85.31
43161;BME280;40968;52.342;5.528;2022-11-04T01:42:04;99706.28;;;7.59;85.42
43161;BME280;40968;52.342;5.528;2022-11-04T01:44:53;100135.25;;;10.17;85.35
43161;BME280;40968;52.342;5.528;2022-11-04T01:47:23;100092.75;;;9.91;85.32
43161;BME280;40968;52.342;5.528;2022-11-04T01:49:54;100122.53;;;9.98;84.86
43161;BME280;40968;52.342;5.528;2022-11-04T01:52:26;100154.00;;;10.05;84.79
43161;BME280;40968;52.342;5.528;2022-11-04T01:54:54;100007.88;;;9.17;84.58
43161;BME280;40968;52.342;5.528;2022-11-04T01:57:29;100176.03;;;10.09;84.58
43161;BME280;40968;52.342;5.528;2022-11-04T02:00:05;100110.56;;;9.69;84.55
43161;BME280;40968;52.342;5.528;2022-11-04T02:02:34;99859.28;;;8.15;84.55
43161;BME280;40968;52.342;5.528;2022-11-04T02:05:05;100014.84;;;8.85;84.37
43161;BME280;40968;52.342;5.528;2022-11-04T02:07:31;100075.03;;;9.35;84.64
43161;BME280;40968;52.342;5.528;2022-11-04T02:09:59;100182.88;;;10.02;84.76
43161;BME280;40968;52.342;5.528;2022-11-04T02:12:25;100118.66;;;9.58;84.84
43161;BME280;40968;52.342;5.528;2022-11-04T02:15:11;99913.13;;;8.32;85.03
43161;BME280;40968;52.342;5.528;2022-11-04T02:17:54;100163.25;;;9.57;85.10
43161;BME280;40968;52.342;5.528;2022-11-04T02:20:31;99993.59;;;8.72;85.29
43161;BME280;40968;52.342;5.528;2022-11-04T02:29:11;100219.88;;;9.96;85.35
43161;BME280;40968;52.342;5.528;2022-11-04T02:31:43;100218.06;;;9.97;85.67
43161;BME280;40968;52.342;5.528;2022-11-04T02:34:18;100226.94;;;9.98;85.51
43161;BME280;40968;52.342;5.528;2022-11-04T02:37:05;100228.50;;;9.89;85.55
43161;BME280;40968;52.342;5.528;2022-11-04T02:39:47;100189.66;;;9.62;85.59
43161;BME280;40968;52.342;5.528;2022-11-04T02:42:23;100098.41;;;9.10;85.24
43161;BME280;40968;52.342;5.528;2022-11-04T02:45:01;99947.25;;;8.28;84.88
43161;BME280;40968;52.342;5.528;2022-11-04T02:47:32;100002.38;;;8.52;84.18
43161;BME280;40968;52.342;5.528;2022-11-04T02:50:07;99894.28;;;7.76;84.19
43161;BME280;40968;52.342;5.528;2022-11-04T02:52:40;100234.25;;;9.84;84.43
43161;BME280;40968;52.342;5.528;2022-11-04T02:55:11;99836.31;;;7.44;84.50
43161;BME280;40968;52.342;5.528;2022-11-04T02:57:43;100085.78;;;8.89;84.29
43161;BME280;40968;52.342;5.528;2022-11-04T03:00:14;100143.50;;;9.15;84.34
43161;BME280;40968;52.342;5.528;2022-11-04T03:02:47;99995.97;;;8.19;83.97
43161;BME280;40968;52.342;5.528;2022-11-04T03:05:18;99995.59;;;8.12;84.06
43161;BME280;40968;52.342;5.528;2022-11-04T03:07:49;100301.41;;;9.58;84.44
43161;BME280;40968;52.342;5.528;2022-11-04T03:10:20;100111.69;;;8.42;84.03
43161;BME280;40968;52.342;5.528;2022-11-04T03:12:53;100249.38;;;9.51;84.02
43161;BME280;40968;52.342;5.528;2022-11-04T03:15:26;100186.13;;;9.05;84.06
43161;BME280;40968;52.342;5.528;2022-11-04T03:17:59;100194.50;;;9.11;84.08
43161;BME280;40968;52.342;5.528;2022-11-04T03:20:27;100081.69;;;8.38;84.26
43161;BME280;40968;52.342;5.528;2022-11-04T03:22:57;100022.28;;;8.01;84.13
43161;BME280;40968;52.342;5.528;2022-11-04T03:25:26;100284.38;;;9.59;84.36
43161;BME280;40968;52.342;5.528;2022-11-04T03:28:02;100268.31;;;9.48;84.28
43161;BME280;40968;52.342;5.528;2022-11-04T03:30:37;100215.78;;;9.02;84.29
43161;BME280;40968;52.342;5.528;2022-11-04T03:33:11;100308.47;;;9.59;84.31
43161;BME280;40968;52.342;5.528;2022-11-04T03:35:40;100106.81;;;8.36;84.04
43161;BME280;40968;52.342;5.528;2022-11-04T03:38:06;100258.81;;;9.33;84.25
43161;BME280;40968;52.342;5.528;2022-11-04T03:40:33;99943.78;;;7.45;84.04
43161;BME280;40968;52.342;5.528;2022-11-04T03:43:04;99960.81;;;7.55;84.25
43161;BME280;40968;52.342;5.528;2022-11-04T03:45:35;100125.44;;;8.49;84.19
43161;BME280;40968;52.342;5.528;2022-11-04T03:48:03;100200.72;;;9.01;84.12
43161;BME280;40968;52.342;5.528;2022-11-04T03:50:32;100231.22;;;9.09;84.22
43161;BME280;40968;52.342;5.528;2022-11-04T03:53:00;100249.34;;;9.17;83.96
43161;BME280;40968;52.342;5.528;2022-11-04T03:55:38;100203.34;;;8.89;84.12
43161;BME280;40968;52.342;5.528;2022-11-04T03:58:11;99965.38;;;7.42;83.80
43161;BME280;40968;52.342;5.528;2022-11-04T04:00:46;100309.41;;;9.47;83.86
43161;BME280;40968;52.342;5.528;2022-11-04T04:03:16;100058.41;;;7.93;83.76
43161;BME280;40968;52.342;5.528;2022-11-04T04:05:50;100307.22;;;9.41;83.71
43161;BME280;40968;52.342;5.528;2022-11-04T04:08:26;100309.28;;;9.37;83.58
43161;BME280;40968;52.342;5.528;2022-11-04T04:11:04;100325.69;;;9.33;83.50
43161;BME280;40968;52.342;5.528;2022-11-04T04:13:38;100016.13;;;7.40;83.28
43161;BME280;40968;52.342;5.528;2022-11-04T04:16:12;100336.88;;;9.26;83.21
43161;BME280;40968;52.342;5.528;2022-11-04T04:18:43;100240.44;;;8.58;83.21
43161;BME280;40968;52.342;5.528;2022-11-04T04:21:16;100330.41;;;9.18;83.34
43161;BME280;40968;52.342;5.528;2022-11-04T04:23:45;100051.31;;;7.45;82.84
43161;BME280;40968;52.342;5.528;2022-11-04T04:26:32;100333.66;;;9.10;83.06
43161;BME280;40968;52.342;5.528;2022-11-04T04:29:19;100344.59;;;9.07;83.15
43161;BME280;40968;52.342;5.528;2022-11-04T04:31:48;100298.78;;;8.76;83.11
43161;BME280;40968;52.342;5.528;2022-11-04T04:34:15;100310.94;;;8.80;83.22
43161;BME280;40968;52.342;5.528;2022-11-04T04:36:45;100336.88;;;8.91;83.29
43161;BME280;40968;52.342;5.528;2022-11-04T04:39:15;100260.91;;;8.46;83.39
43161;BME280;40968;52.342;5.528;2022-11-04T04:42:01;100131.03;;;7.61;83.32
43161;BME280;40968;52.342;5.528;2022-11-04T04:44:45;100301.19;;;8.68;83.42
43161;BME280;40968;52.342;5.528;2022-11-04T04:47:35;100130.50;;;7.56;83.34
43161;BME280;40968;52.342;5.528;2022-11-04T04:50:05;100261.63;;;8.24;83.41
43161;BME280;40968;52.342;5.528;2022-11-04T04:52:33;100302.56;;;8.49;83.42
43161;BME280;40968;52.342;5.528;2022-11-04T04:55:02;100371.84;;;8.88;83.63
43161;BME280;40968;52.342;5.528;2022-11-04T04:57:29;100372.06;;;8.85;83.79
43161;BME280;40968;52.342;5.528;2022-11-04T04:59:55;100131.84;;;7.38;83.71
43161;BME280;40968;52.342;5.528;2022-11-04T05:02:22;100379.22;;;8.84;83.95
43161;BME280;40968;52.342;5.528;2022-11-04T05:04:51;100374.00;;;8.83;83.99
43161;BME280;40968;52.342;5.528;2022-11-04T05:07:18;100168.78;;;7.55;84.00
43161;BME280;40968;52.342;5.528;2022-11-04T05:09:44;100237.41;;;7.90;84.21
43161;BME280;40968;52.342;5.528;2022-11-04T05:12:11;100390.03;;;8.83;84.25
43161;BME280;40968;52.342;5.528;2022-11-04T05:14:37;100326.72;;;8.48;84.20
43161;BME280;40968;52.342;5.528;2022-11-04T05:17:04;100352.53;;;8.60;84.08
43161;BME280;40968;52.342;5.528;2022-11-04T05:19:31;100339.72;;;8.52;83.89
43161;BME280;40968;52.342;5.528;2022-11-04T05:22:00;100078.72;;;6.97;84.40
43161;BME280;40968;52.342;5.528;2022-11-04T05:24:27;100306.06;;;8.25;84.18
43161;BME280;40968;52.342;5.528;2022-11-04T05:26:54;100160.31;;;7.24;84.04
43161;BME280;40968;52.342;5.528;2022-11-04T05:29:20;100299.69;;;8.15;84.17
43161;BME280;40968;52.342;5.528;2022-11-04T05:31:47;100411.41;;;8.83;84.22
43161;BME280;40968;52.342;5.528;2022-11-04T05:34:15;100408.13;;;8.79;84.23
43161;BME280;40968;52.342;5.528;2022-11-04T05:36:42;100409.66;;;8.70;84.30
43161;BME280;40968;52.342;5.528;2022-11-04T05:39:12;100416.75;;;8.83;84.33
43161;BME280;40968;52.342;5.528;2022-11-04T05:41:38;100130.41;;;7.08;84.19
43161;BME280;40968;52.342;5.528;2022-11-04T05:44:05;100436.31;;;8.83;84.22
43161;BME280;40968;52.342;5.528;2022-11-04T05:46:33;100156.91;;;7.35;84.13
43161;BME280;40968;52.342;5.528;2022-11-04T05:49:00;100326.34;;;8.28;84.29
43161;BME280;40968;52.342;5.528;2022-11-04T05:51:27;100418.59;;;8.82;84.24
43161;BME280;40968;52.342;5.528;2022-11-04T05:53:54;100351.91;;;8.43;84.30
43161;BME280;40968;52.342;5.528;2022-11-04T05:56:22;100406.31;;;8.79;84.09
43161;BME280;40968;52.342;5.528;2022-11-04T05:58:48;100418.06;;;8.77;83.99
43161;BME280;40968;52.342;5.528;2022-11-04T06:01:30;100385.66;;;8.57;84.15
43161;BME280;40968;52.342;5.528;2022-11-04T06:03:57;100157.34;;;7.16;83.92
43161;BME280;40968;52.342;5.528;2022-11-04T06:06:27;100030.75;;;6.35;83.71
43161;BME280;40968;52.342;5.528;2022-11-04T06:08:54;100163.13;;;7.10;83.99
43161;BME280;40968;52.342;5.528;2022-11-04T06:11:23;100346.75;;;8.16;83.97
43161;BME280;40968;52.342;5.528;2022-11-04T06:13:50;100398.72;;;8.36;84.06
43161;BME280;40968;52.342;5.528;2022-11-04T06:16:17;100086.13;;;6.55;83.89
43161;BME280;40968;52.342;5.528;2022-11-04T06:18:43;100350.94;;;8.07;83.85
43161;BME280;40968;52.342;5.528;2022-11-04T06:21:19;100443.00;;;8.65;83.90
43161;BME280;40968;52.342;5.528;2022-11-04T06:23:47;100390.19;;;8.31;83.83
43161;BME280;40968;52.342;5.528;2022-11-04T06:26:14;100389.53;;;8.27;84.05
43161;BME280;40968;52.342;5.528;2022-11-04T06:28:43;100398.31;;;8.29;84.04
43161;BME280;40968;52.342;5.528;2022-11-04T06:31:11;100442.50;;;8.59;84.15
43161;BME280;40968;52.342;5.528;2022-11-04T06:33:38;100391.50;;;8.25;84.28
43161;BME280;40968;52.342;5.528;2022-11-04T06:36:06;100088.25;;;6.37;84.17
43161;BME280;40968;52.342;5.528;2022-11-04T06:38:35;100210.13;;;7.11;84.03
43161;BME280;40968;52.342;5.528;2022-11-04T06:41:02;100363.75;;;8.02;84.38
43161;BME280;40968;52.342;5.528;2022-11-04T06:43:29;100406.50;;;8.26;84.10
43161;BME280;40968;52.342;5.528;2022-11-04T06:45:59;100471.13;;;8.57;84.25
43161;BME280;40968;52.342;5.528;2022-11-04T06:48:26;100167.63;;;6.71;84.19
43161;BME280;40968;52.342;5.528;2022-11-04T06:50:54;100475.63;;;8.57;84.39
43161;BME280;40968;52.342;5.528;2022-11-04T06:53:21;100377.41;;;7.97;84.16
43161;BME280;40968;52.342;5.528;2022-11-04T06:55:48;100315.03;;;7.49;84.28
43161;BME280;40968;52.342;5.528;2022-11-04T06:58:14;100496.13;;;8.56;84.04
43161;BME280;40968;52.342;5.528;2022-11-04T07:00:41;100111.13;;;6.27;84.04
43161;BME280;40968;52.342;5.528;2022-11-04T07:03:09;100410.50;;;8.08;84.19
43161;BME280;40968;52.342;5.528;2022-11-04T07:05:36;100452.38;;;8.20;84.00
43161;BME280;40968;52.342;5.528;2022-11-04T07:08:03;100316.44;;;7.28;83.83
43161;BME280;40968;52.342;5.528;2022-11-04T07:10:29;100476.88;;;8.38;83.99
43161;BME280;40968;52.342;5.528;2022-11-04T07:12:57;100439.66;;;8.11;83.85
43161;BME280;40968;52.342;5.528;2022-11-04T07:15:23;100507.75;;;8.55;84.18
43161;BME280;40968;52.342;5.528;2022-11-04T07:17:50;100393.66;;;7.82;83.83
43161;BME280;40968;52.342;5.528;2022-11-04T07:20:18;100453.19;;;8.21;83.91
43161;BME280;40968;52.342;5.528;2022-11-04T07:22:44;100247.53;;;6.96;83.94
43161;BME280;40968;52.342;5.528;2022-11-04T07:25:11;100405.50;;;7.90;84.00
43161;BME280;40968;52.342;5.528;2022-11-04T07:27:38;100535.75;;;8.62;84.35
43161;BME280;40968;52.342;5.528;2022-11-04T07:30:05;100497.16;;;8.41;84.19
43161;BME280;40968;52.342;5.528;2022-11-04T07:32:32;100536.28;;;8.68;84.26
43161;BME280;40968;52.342;5.528;2022-11-04T07:34:59;100216.84;;;6.78;83.79
43161;BME280;40968;52.342;5.528;2022-11-04T07:37:27;100505.31;;;8.52;83.97
43161;BME280;40968;52.342;5.528;2022-11-04T07:39:53;100264.59;;;7.07;84.03
43161;BME280;40968;52.342;5.528;2022-11-04T07:42:20;100346.94;;;7.63;83.84
43161;BME280;40968;52.342;5.528;2022-11-04T07:44:46;100453.41;;;8.30;83.94
43161;BME280;40968;52.342;5.528;2022-11-04T07:47:13;100334.34;;;7.52;83.84
43161;BME280;40968;52.342;5.528;2022-11-04T07:49:39;100444.13;;;8.23;84.24
43161;BME280;40968;52.342;5.528;2022-11-04T07:52:06;100464.81;;;8.33;83.96
43161;BME280;40968;52.342;5.528;2022-11-04T07:54:34;100549.09;;;8.88;83.89
43161;BME280;40968;52.342;5.528;2022-11-04T07:57:01;100383.84;;;7.82;83.68
43161;BME280;40968;52.342;5.528;2022-11-04T07:59:28;100563.19;;;8.90;84.02
43161;BME280;40968;52.342;5.528;2022-11-04T08:01:54;100377.88;;;7.78;83.85
43161;BME280;40968;52.342;5.528;2022-11-04T08:04:21;100565.53;;;8.95;83.99
43161;BME280;40968;52.342;5.528;2022-11-04T08:06:47;100568.09;;;8.96;83.93
43161;BME280;40968;52.342;5.528;2022-11-04T08:09:14;100311.94;;;7.42;83.93
43161;BME280;40968;52.342;5.528;2022-11-04T08:11:42;100333.72;;;7.49;83.63
43161;BME280;40968;52.342;5.528;2022-11-04T08:14:09;100434.63;;;7.93;83.52
43161;BME280;40968;52.342;5.528;2022-11-04T08:16:36;100573.44;;;8.96;83.82
43161;BME280;40968;52.342;5.528;2022-11-04T08:19:02;100587.97;;;9.05;83.65
43161;BME280;40968;52.342;5.528;2022-11-04T08:21:30;100594.16;;;9.06;83.47
43161;BME280;40968;52.342;5.528;2022-11-04T08:23:57;100589.88;;;9.03;83.45
43161;BME280;40968;52.342;5.528;2022-11-04T08:26:24;100366.56;;;7.62;83.70
43161;BME280;40968;52.342;5.528;2022-11-04T08:28:52;100399.41;;;7.88;83.41
43161;BME280;40968;52.342;5.528;2022-11-04T08:31:20;100497.44;;;8.51;83.49
43161;BME280;40968;52.342;5.528;2022-11-04T08:33:48;100393.25;;;7.88;83.30
43161;BME280;40968;52.342;5.528;2022-11-04T08:36:18;100598.19;;;9.11;83.63
43161;BME280;40968;52.342;5.528;2022-11-04T08:38:45;100536.50;;;8.65;83.55
43161;BME280;40968;52.342;5.528;2022-11-04T08:41:13;100614.66;;;9.18;83.64
43161;BME280;40968;52.342;5.528;2022-11-04T08:43:40;100518.31;;;8.70;83.52
43161;BME280;40968;52.342;5.528;2022-11-04T08:46:09;100567.88;;;9.00;83.47
43161;BME280;40968;52.342;5.528;2022-11-04T08:48:37;100497.59;;;8.60;83.60
43161;BME280;40968;52.342;5.528;2022-11-04T08:51:06;100562.25;;;9.16;83.89
43161;BME280;40968;52.342;5.528;2022-11-04T08:53:36;100428.63;;;8.41;83.48
43161;BME280;40968;52.342;5.528;2022-11-04T08:56:08;100627.38;;;9.65;83.17
43161;BME280;40968;52.342;5.528;2022-11-04T08:58:35;100566.72;;;9.28;82.74
43161;BME280;40968;52.342;5.528;2022-11-04T09:01:02;100339.09;;;7.99;82.49
43161;BME280;40968;52.342;5.528;2022-11-04T09:03:30;100415.59;;;8.50;82.80
43161;BME280;40968;52.342;5.528;2022-11-04T09:05:59;100572.47;;;9.35;83.15
43161;BME280;40968;52.342;5.528;2022-11-04T09:08:25;100605.03;;;9.77;82.98
43161;BME280;40968;52.342;5.528;2022-11-04T09:10:52;100635.81;;;10.07;83.17
43161;BME280;40968;52.342;5.528;2022-11-04T09:13:18;100576.28;;;9.68;82.41
43161;BME280;40968;52.342;5.528;2022-11-04T09:15:45;100570.22;;;9.66;82.01
43161;BME280;40968;52.342;5.528;2022-11-04T09:18:13;100633.38;;;10.04;81.92
43161;BME280;40968;52.342;5.528;2022-11-04T09:20:41;100596.78;;;9.80;81.71
43161;BME280;40968;52.342;5.528;2022-11-04T09:23:08;100647.88;;;10.12;81.90
43161;BME280;40968;52.342;5.528;2022-11-04T09:25:35;100654.13;;;10.13;81.65
43161;BME280;40968;52.342;5.528;2022-11-04T09:28:02;100658.50;;;10.14;81.77
43161;BME280;40968;52.342;5.528;2022-11-04T09:30:29;100492.84;;;9.14;81.37
43161;BME280;40968;52.342;5.528;2022-11-04T09:32:56;100581.88;;;9.65;81.50
43161;BME280;40968;52.342;5.528;2022-11-04T09:35:23;100667.16;;;10.18;81.62
43161;BME280;40968;52.342;5.528;2022-11-04T09:37:53;100573.84;;;9.65;81.66
43161;BME280;40968;52.342;5.528;2022-11-04T09:40:22;100665.09;;;10.21;81.58
43161;BME280;40968;52.342;5.528;2022-11-04T09:43:01;100631.91;;;10.00;81.54
43161;BME280;40968;52.342;5.528;2022-11-04T09:45:32;100683.56;;;10.37;81.61
43161;BME280;40968;52.342;5.528;2022-11-04T09:48:02;100656.34;;;10.19;81.28
43161;BME280;40968;52.342;5.528;2022-11-04T09:50:30;100690.31;;;10.43;81.01
43161;BME280;40968;52.342;5.528;2022-11-04T09:53:02;100576.69;;;9.74;80.85
43161;BME280;40968;52.342;5.528;2022-11-04T09:55:34;100701.53;;;10.48;80.86
43161;BME280;40968;52.342;5.528;2022-11-04T09:58:08;100624.59;;;10.02;80.71
43161;BME280;40968;52.342;5.528;2022-11-04T10:00:38;100669.88;;;10.29;80.55
43161;BME280;40968;52.342;5.528;2022-11-04T10:03:18;100444.84;;;9.12;80.70
43161;BME280;40968;52.342;5.528;2022-11-04T10:06:06;100480.22;;;9.40;80.70
43161;BME280;40968;52.342;5.528;2022-11-04T10:08:51;100679.50;;;10.67;80.27
43161;BME280;40968;52.342;5.528;2022-11-04T10:11:25;100594.13;;;10.16;80.60
43161;BME280;40968;52.342;5.528;2022-11-04T10:14:06;100677.56;;;10.69;80.09
43161;BME280;40968;52.342;5.528;2022-11-04T10:16:50;100493.78;;;9.61;79.27
43161;BME280;40968;52.342;5.528;2022-11-04T10:19:29;100683.44;;;10.74;79.06
43161;BME280;40968;52.342;5.528;2022-11-04T10:22:03;100695.75;;;10.77;79.33
43161;BME280;40968;52.342;5.528;2022-11-04T10:24:41;100737.97;;;11.09;79.17
43161;BME280;40968;52.342;5.528;2022-11-04T10:27:15;100693.56;;;10.82;78.62
43161;BME280;40968;52.342;5.528;2022-11-04T10:29:43;100454.34;;;9.41;78.47
43161;BME280;40968;52.342;5.528;2022-11-04T10:32:13;100671.72;;;10.75;78.89
43161;BME280;40968;52.342;5.528;2022-11-04T10:34:45;100692.47;;;10.96;79.10
43161;BME280;40968;52.342;5.528;2022-11-04T10:37:13;100746.75;;;11.34;78.71
43161;BME280;40968;52.342;5.528;2022-11-04T10:39:43;100673.81;;;10.94;77.99
43161;BME280;40968;52.342;5.528;2022-11-04T10:42:10;100677.97;;;10.99;77.93
43161;BME280;40968;52.342;5.528;2022-11-04T10:44:37;100747.25;;;11.39;77.49
43161;BME280;40968;52.342;5.528;2022-11-04T10:47:17;100541.19;;;10.19;77.50
43161;BME280;40968;52.342;5.528;2022-11-04T10:49:56;100537.13;;;10.13;77.48
43161;BME280;40968;52.342;5.528;2022-11-04T10:52:27;100491.91;;;9.86;77.40
43161;BME280;40968;52.342;5.528;2022-11-04T10:54:55;100671.88;;;10.97;77.92
43161;BME280;40968;52.342;5.528;2022-11-04T10:57:23;100718.84;;;11.14;77.35
43161;BME280;40968;52.342;5.528;2022-11-04T10:59:52;100675.75;;;10.92;77.01
43161;BME280;40968;52.342;5.528;2022-11-04T11:02:44;100758.09;;;11.49;76.74
43161;BME280;40968;52.342;5.528;2022-11-04T11:05:13;100612.09;;;10.49;77.03
43161;BME280;40968;52.342;5.528;2022-11-04T11:07:41;100600.63;;;10.36;76.67
43161;BME280;40968;52.342;5.528;2022-11-04T11:10:17;100787.97;;;11.55;77.15
43161;BME280;40968;52.342;5.528;2022-11-04T11:12:50;100726.75;;;11.15;76.93
43161;BME280;40968;52.342;5.528;2022-11-04T11:15:25;100773.13;;;11.40;76.55
43161;BME280;40968;52.342;5.528;2022-11-04T11:17:59;100749.06;;;11.38;76.89
43161;BME280;40968;52.342;5.528;2022-11-04T11:20:28;100715.31;;;11.24;76.65
43161;BME280;40968;52.342;5.528;2022-11-04T11:22:57;100691.16;;;11.36;75.97
43161;BME280;40968;52.342;5.528;2022-11-04T11:25:27;100806.22;;;12.41;75.68
43161;BME280;40968;52.342;5.528;2022-11-04T11:27:56;100804.69;;;12.59;75.08
43161;BME280;40968;52.342;5.528;2022-11-04T11:30:27;100731.66;;;12.22;74.07
43161;BME280;40968;52.342;5.528;2022-11-04T11:32:58;100500.28;;;10.85;73.78
43161;BME280;40968;52.342;5.528;2022-11-04T11:35:29;100752.72;;;12.38;73.36
43161;BME280;40968;52.342;5.528;2022-11-04T11:37:58;100780.53;;;12.48;73.13
43161;BME280;40968;52.342;5.528;2022-11-04T11:40:29;100557.28;;;11.10;73.38
43161;BME280;40968;52.342;5.528;2022-11-04T11:42:58;100771.31;;;12.30;72.91
43161;BME280;40968;52.342;5.528;2022-11-04T11:45:28;100834.13;;;12.61;73.06
43161;BME280;40968;52.342;5.528;2022-11-04T11:47:55;100817.84;;;12.74;73.08
43161;BME280;40968;52.342;5.528;2022-11-04T11:50:24;100651.75;;;11.91;72.53
43161;BME280;40968;52.342;5.528;2022-11-04T11:53:10;100820.09;;;13.11;70.96
43161;BME280;40968;52.342;5.528;2022-11-04T11:55:42;100525.84;;;11.44;70.55
43161;BME280;40968;52.342;5.528;2022-11-04T11:58:18;100732.19;;;12.90;71.11
43161;BME280;40968;52.342;5.528;2022-11-04T12:00:50;100753.75;;;13.21;69.82
43161;BME280;40968;52.342;5.528;2022-11-04T12:03:19;100817.50;;;13.73;69.35
43161;BME280;40968;52.342;5.528;2022-11-04T12:06:02;100818.28;;;13.85;68.79
43161;BME280;40968;52.342;5.528;2022-11-04T12:09:02;100801.06;;;13.76;67.70
43161;BME280;40968;52.342;5.528;2022-11-04T12:11:39;100815.13;;;13.80;67.00
43161;BME280;40968;52.342;5.528;2022-11-04T12:14:13;100814.44;;;13.56;67.08
43161;BME280;40968;52.342;5.528;2022-11-04T12:16:49;100831.34;;;13.58;67.71
43161;BME280;40968;52.342;5.528;2022-11-04T12:19:32;100827.47;;;13.51;68.19
43161;BME280;40968;52.342;5.528;2022-11-04T12:22:11;100630.16;;;12.25;68.25
43161;BME280;40968;52.342;5.528;2022-11-04T12:24:50;100781.16;;;13.15;68.44
43161;BME280;40968;52.342;5.528;2022-11-04T12:27:28;100694.00;;;12.54;68.74
43161;BME280;40968;52.342;5.528;2022-11-04T12:30:06;100827.03;;;13.35;68.23
43161;BME280;40968;52.342;5.528;2022-11-04T12:32:41;100797.38;;;13.25;68.29
43161;BME280;40968;52.342;5.528;2022-11-04T12:35:22;100795.28;;;13.29;68.47
43161;BME280;40968;52.342;5.528;2022-11-04T12:38:02;100830.22;;;13.40;68.54
43161;BME280;40968;52.342;5.528;2022-11-04T12:40:43;100783.16;;;13.13;68.21
43161;BME280;40968;52.342;5.528;2022-11-04T12:43:19;100831.44;;;13.36;68.49
43161;BME280;40968;52.342;5.528;2022-11-04T12:45:58;100755.00;;;12.75;68.48
43161;BME280;40968;52.342;5.528;2022-11-04T12:48:46;100819.84;;;13.14;68.50
43161;BME280;40968;52.342;5.528;2022-11-04T12:51:23;100481.72;;;11.05;69.20
43161;BME280;40968;52.342;5.528;2022-11-04T12:54:07;100773.59;;;12.67;69.25
43161;BME280;40968;52.342;5.528;2022-11-04T12:56:39;100813.91;;;12.78;69.63
43161;BME280;40968;52.342;5.528;2022-11-04T12:59:37;100785.69;;;12.40;65.14
43161;BME280;40968;52.342;5.528;2022-11-04T13:02:15;100854.28;;;12.67;65.25
43161;BME280;40968;52.342;5.528;2022-11-04T13:04:49;100770.75;;;12.15;65.50
43161;BME280;40968;52.342;5.528;2022-11-04T13:07:21;100861.28;;;12.58;65.11
43161;BME280;40968;52.342;5.528;2022-11-04T13:09:57;100571.34;;;10.80;65.14
43161;BME280;40968;52.342;5.528;2022-11-04T13:12:28;100585.94;;;10.87;65.70
43161;BME280;40968;52.342;5.528;2022-11-04T13:15:00;100830.44;;;12.30;66.14
43161;BME280;40968;52.342;5.528;2022-11-04T13:17:30;100882.66;;;12.59;65.62
43161;BME280;40968;52.342;5.528;2022-11-04T13:20:02;100889.00;;;12.58;65.66
43161;BME280;40968;52.342;5.528;2022-11-04T13:22:33;100850.13;;;12.19;66.12
43161;BME280;40968;52.342;5.528;2022-11-04T13:25:03;100895.19;;;12.26;65.18